sensor_id;sensor_type;location;lat;lon;timestamp;P1;durP1;ratioP1;P2;durP2;ratioP2
9643;SDS011;4860;50.900;4.720;2024-03-02T00:02:25;0.22;;;0.22;;
9643;SDS011;4860;50.900;4.720;2024-03-02T00:04:51;0.30;;;0.30;;
9643;SDS011;4860;50.900;4.720;2024-03-02T00:07:17;0.30;;;0.30;;
9643;SDS011;4860;50.900;4.720;2024-03-02T00:09:44;0.30;;;0.30;;
9643;SDS011;4860;50.900;4.720;2024-03-02T00:12:11;0.30;;;0.30;;
9643;SDS011;4860;50.900;4.720;2024-03-02T00:14:40;0.30;;;0.30;;
9643;SDS011;4860;50.900;4.720;2024-03-02T00:17:08;0.30;;;0.30;;
9643;SDS011;4860;50.900;4.720;2024-03-02T00:19:40;0.22;;;0.22;;
9643;SDS011;4860;50.900;4.720;2024-03-02T00:22:06;0.30;;;0.30;;
9643;SDS011;4860;50.900;4.720;2024-03-02T00:24:34;0.30;;;0.30;;
9643;SDS011;4860;50.900;4.720;2024-03-02T00:27:01;0.22;;;0.22;;
9643;SDS011;4860;50.900;4.720;2024-03-02T00:29:30;0.30;;;0.30;;
9643;SDS011;4860;50.900;4.720;2024-03-02T00:31:57;0.22;;;0.22;;
9643;SDS011;4860;50.900;4.720;2024-03-02T00:34:24;0.25;;;0.25;;
9643;SDS011;4860;50.900;4.720;2024-03-02T00:36:51;0.30;;;0.30;;
9643;SDS011;4860;50.900;4.720;2024-03-02T00:39:17;0.40;;;0.40;;
9643;SDS011;4860;50.900;4.720;2024-03-02T00:41:44;0.30;;;0.30;;
9643;SDS011;4860;50.900;4.720;2024-03-02T00:44:11;0.30;;;0.30;;
9643;SDS011;4860;50.900;4.720;2024-03-02T00:46:39;0.30;;;0.30;;
9643;SDS011;4860;50.900;4.720;2024-03-02T00:49:12;0.30;;;0.30;;
9643;SDS011;4860;50.900;4.720;2024-03-02T00:51:45;0.30;;;0.30;;
9643;SDS011;4860;50.900;4.720;2024-03-02T00:54:14;0.30;;;0.30;;
9643;SDS011;4860;50.900;4.720;2024-03-02T00:56:43;0.30;;;0.30;;
9643;SDS011;4860;50.900;4.720;2024-03-02T00:59:10;0.30;;;0.30;;
9643;SDS011;4860;50.900;4.720;2024-03-02T01:01:37;0.30;;;0.30;;
9643;SDS011;4860;50.900;4.720;2024-03-02T01:04:03;0.30;;;0.30;;
9643;SDS011;4860;50.900;4.720;2024-03-02T01:06:30;0.30;;;0.30;;
9643;SDS011;4860;50.900;4.720;2024-03-02T01:08:56;0.30;;;0.30;;
9643;SDS011;4860;50.900;4.720;2024-03-02T01:11:26;0.30;;;0.30;;
9643;SDS011;4860;50.900;4.720;2024-03-02T01:13:52;0.30;;;0.30;;
9643;SDS011;4860;50.900;4.720;2024-03-02T01:16:19;0.30;;;0.30;;
9643;SDS011;4860;50.900;4.720;2024-03-02T01:18:46;0.30;;;0.30;;
9643;SDS011;4860;50.900;4.720;2024-03-02T01:21:12;0.30;;;0.30;;
9643;SDS011;4860;50.900;4.720;2024-03-02T01:23:39;0.30;;;0.30;;
9643;SDS011;4860;50.900;4.720;2024-03-02T01:26:06;0.30;;;0.30;;
9643;SDS011;4860;50.900;4.720;2024-03-02T01:28:32;0.30;;;0.30;;
9643;SDS011;4860;50.900;4.720;2024-03-02T01:30:59;0.35;;;0.35;;
9643;SDS011;4860;50.900;4.720;2024-03-02T01:33:27;0.30;;;0.30;;
9643;SDS011;4860;50.900;4.720;2024-03-02T01:35:54;0.30;;;0.30;;
9643;SDS011;4860;50.900;4.720;2024-03-02T01:38:20;0.30;;;0.30;;
9643;SDS011;4860;50.900;4.720;2024-03-02T01:40:46;0.30;;;0.30;;
9643;SDS011;4860;50.900;4.720;2024-03-02T01:43:13;0.30;;;0.30;;
9643;SDS011;4860;50.900;4.720;2024-03-02T01:45:39;0.30;;;0.30;;
9643;SDS011;4860;50.900;4.720;2024-03-02T01:48:06;0.30;;;0.30;;
9643;SDS011;4860;50.900;4.720;2024-03-02T01:50:32;0.30;;;0.30;;
9643;SDS011;4860;50.900;4.720;2024-03-02T01:52:59;0.30;;;0.30;;
9643;SDS011;4860;50.900;4.720;2024-03-02T01:55:28;0.30;;;0.30;;
9643;SDS011;4860;50.900;4.720;2024-03-02T01:57:55;0.30;;;0.30;;
9643;SDS011;4860;50.900;4.720;2024-03-02T02:00:22;0.25;;;0.25;;
9643;SDS011;4860;50.900;4.720;2024-03-02T02:02:51;0.30;;;0.30;;
9643;SDS011;4860;50.900;4.720;2024-03-02T02:05:18;0.30;;;0.30;;
9643;SDS011;4860;50.900;4.720;2024-03-02T02:07:44;0.30;;;0.30;;
9643;SDS011;4860;50.900;4.720;2024-03-02T02:10:10;0.30;;;0.30;;
9643;SDS011;4860;50.900;4.720;2024-03-02T02:12:37;0.30;;;0.30;;
9643;SDS011;4860;50.900;4.720;2024-03-02T02:15:04;0.30;;;0.30;;
9643;SDS011;4860;50.900;4.720;2024-03-02T02:17:47;0.30;;;0.30;;
9643;SDS011;4860;50.900;4.720;2024-03-02T02:20:14;0.40;;;0.40;;
9643;SDS011;4860;50.900;4.720;2024-03-02T02:25:23;0.30;;;0.30;;
9643;SDS011;4860;50.900;4.720;2024-03-02T02:27:50;0.30;;;0.30;;
9643;SDS011;4860;50.900;4.720;2024-03-02T02:30:19;0.28;;;0.28;;
9643;SDS011;4860;50.900;4.720;2024-03-02T02:32:46;0.30;;;0.30;;
9643;SDS011;4860;50.900;4.720;2024-03-02T02:35:13;0.30;;;0.30;;
9643;SDS011;4860;50.900;4.720;2024-03-02T02:37:39;0.30;;;0.30;;
9643;SDS011;4860;50.900;4.720;2024-03-02T02:40:05;0.30;;;0.30;;
9643;SDS011;4860;50.900;4.720;2024-03-02T02:42:32;0.30;;;0.30;;
9643;SDS011;4860;50.900;4.720;2024-03-02T02:44:58;0.30;;;0.30;;
9643;SDS011;4860;50.900;4.720;2024-03-02T02:47:25;0.30;;;0.30;;
9643;SDS011;4860;50.900;4.720;2024-03-02T02:49:51;0.20;;;0.20;;
9643;SDS011;4860;50.900;4.720;2024-03-02T02:52:18;0.30;;;0.30;;
9643;SDS011;4860;50.900;4.720;2024-03-02T02:54:45;0.30;;;0.30;;
9643;SDS011;4860;50.900;4.720;2024-03-02T02:57:11;0.30;;;0.30;;
9643;SDS011;4860;50.900;4.720;2024-03-02T02:59:37;0.30;;;0.30;;
9643;SDS011;4860;50.900;4.720;2024-03-02T03:02:04;0.30;;;0.30;;
9643;SDS011;4860;50.900;4.720;2024-03-02T03:04:30;0.30;;;0.30;;
9643;SDS011;4860;50.900;4.720;2024-03-02T03:06:56;0.30;;;0.30;;
9643;SDS011;4860;50.900;4.720;2024-03-02T03:09:23;0.30;;;0.30;;
9643;SDS011;4860;50.900;4.720;2024-03-02T03:11:49;0.30;;;0.30;;
9643;SDS011;4860;50.900;4.720;2024-03-02T03:14:15;0.30;;;0.30;;
9643;SDS011;4860;50.900;4.720;2024-03-02T03:16:42;0.30;;;0.30;;
9643;SDS011;4860;50.900;4.720;2024-03-02T03:19:08;0.40;;;0.40;;
9643;SDS011;4860;50.900;4.720;2024-03-02T03:21:35;0.30;;;0.30;;
9643;SDS011;4860;50.900;4.720;2024-03-02T03:24:03;0.30;;;0.30;;
9643;SDS011;4860;50.900;4.720;2024-03-02T03:26:29;0.30;;;0.30;;
9643;SDS011;4860;50.900;4.720;2024-03-02T03:28:55;0.30;;;0.30;;
9643;SDS011;4860;50.900;4.720;2024-03-02T03:31:23;0.30;;;0.30;;
9643;SDS011;4860;50.900;4.720;2024-03-02T03:33:49;0.40;;;0.40;;
9643;SDS011;4860;50.900;4.720;2024-03-02T03:36:16;0.33;;;0.33;;
9643;SDS011;4860;50.900;4.720;2024-03-02T03:38:42;0.33;;;0.33;;
9643;SDS011;4860;50.900;4.720;2024-03-02T03:41:08;0.40;;;0.40;;
9643;SDS011;4860;50.900;4.720;2024-03-02T03:43:35;0.40;;;0.40;;
9643;SDS011;4860;50.900;4.720;2024-03-02T03:46:01;0.30;;;0.30;;
9643;SDS011;4860;50.900;4.720;2024-03-02T03:48:27;0.40;;;0.40;;
9643;SDS011;4860;50.900;4.720;2024-03-02T03:50:58;0.40;;;0.40;;
9643;SDS011;4860;50.900;4.720;2024-03-02T03:53:25;0.40;;;0.40;;
9643;SDS011;4860;50.900;4.720;2024-03-02T03:55:51;0.40;;;0.40;;
9643;SDS011;4860;50.900;4.720;2024-03-02T03:58:17;0.30;;;0.30;;
9643;SDS011;4860;50.900;4.720;2024-03-02T04:00:45;0.40;;;0.40;;
9643;SDS011;4860;50.900;4.720;2024-03-02T04:03:12;0.30;;;0.30;;
9643;SDS011;4860;50.900;4.720;2024-03-02T04:05:38;0.40;;;0.40;;
9643;SDS011;4860;50.900;4.720;2024-03-02T04:08:04;0.40;;;0.40;;
9643;SDS011;4860;50.900;4.720;2024-03-02T04:10:31;0.40;;;0.40;;
9643;SDS011;4860;50.900;4.720;2024-03-02T04:12:57;0.30;;;0.30;;
9643;SDS011;4860;50.900;4.720;2024-03-02T04:15:24;0.40;;;0.40;;
9643;SDS011;4860;50.900;4.720;2024-03-02T04:17:51;0.40;;;0.40;;
9643;SDS011;4860;50.900;4.720;2024-03-02T04:20:19;0.40;;;0.40;;
9643;SDS011;4860;50.900;4.720;2024-03-02T04:22:48;0.30;;;0.30;;
9643;SDS011;4860;50.900;4.720;2024-03-02T04:25:14;0.40;;;0.40;;
9643;SDS011;4860;50.900;4.720;2024-03-02T04:27:41;0.40;;;0.40;;
9643;SDS011;4860;50.900;4.720;2024-03-02T04:30:07;0.30;;;0.30;;
9643;SDS011;4860;50.900;4.720;2024-03-02T04:32:33;0.40;;;0.40;;
9643;SDS011;4860;50.900;4.720;2024-03-02T04:35:01;0.40;;;0.40;;
9643;SDS011;4860;50.900;4.720;2024-03-02T04:37:27;0.40;;;0.40;;
9643;SDS011;4860;50.900;4.720;2024-03-02T04:39:53;0.40;;;0.40;;
9643;SDS011;4860;50.900;4.720;2024-03-02T04:42:20;0.40;;;0.40;;
9643;SDS011;4860;50.900;4.720;2024-03-02T04:44:46;0.40;;;0.40;;
9643;SDS011;4860;50.900;4.720;2024-03-02T04:47:12;0.40;;;0.40;;
9643;SDS011;4860;50.900;4.720;2024-03-02T04:49:39;0.30;;;0.30;;
9643;SDS011;4860;50.900;4.720;2024-03-02T04:52:05;0.40;;;0.40;;
9643;SDS011;4860;50.900;4.720;2024-03-02T04:54:31;0.33;;;0.33;;
9643;SDS011;4860;50.900;4.720;2024-03-02T04:56:57;0.47;;;0.47;;
9643;SDS011;4860;50.900;4.720;2024-03-02T04:59:24;0.33;;;0.33;;
9643;SDS011;4860;50.900;4.720;2024-03-02T05:01:51;0.40;;;0.40;;
9643;SDS011;4860;50.900;4.720;2024-03-02T05:04:17;0.40;;;0.40;;
9643;SDS011;4860;50.900;4.720;2024-03-02T05:06:44;0.37;;;0.37;;
9643;SDS011;4860;50.900;4.720;2024-03-02T05:09:18;0.30;;;0.30;;
9643;SDS011;4860;50.900;4.720;2024-03-02T05:11:45;0.20;;;0.20;;
9643;SDS011;4860;50.900;4.720;2024-03-02T05:14:30;0.30;;;0.30;;
9643;SDS011;4860;50.900;4.720;2024-03-02T05:16:57;0.40;;;0.40;;
9643;SDS011;4860;50.900;4.720;2024-03-02T05:19:24;0.40;;;0.40;;
9643;SDS011;4860;50.900;4.720;2024-03-02T05:21:50;0.33;;;0.33;;
9643;SDS011;4860;50.900;4.720;2024-03-02T05:24:17;0.40;;;0.40;;
9643;SDS011;4860;50.900;4.720;2024-03-02T05:26:44;0.40;;;0.40;;
9643;SDS011;4860;50.900;4.720;2024-03-02T05:29:10;0.40;;;0.40;;
9643;SDS011;4860;50.900;4.720;2024-03-02T05:31:37;0.30;;;0.30;;
9643;SDS011;4860;50.900;4.720;2024-03-02T05:34:03;0.40;;;0.40;;
9643;SDS011;4860;50.900;4.720;2024-03-02T05:36:30;0.30;;;0.30;;
9643;SDS011;4860;50.900;4.720;2024-03-02T05:39:00;0.30;;;0.30;;
9643;SDS011;4860;50.900;4.720;2024-03-02T05:41:28;0.40;;;0.40;;
9643;SDS011;4860;50.900;4.720;2024-03-02T05:43:54;0.40;;;0.40;;
9643;SDS011;4860;50.900;4.720;2024-03-02T05:46:20;0.40;;;0.40;;
9643;SDS011;4860;50.900;4.720;2024-03-02T05:48:47;0.40;;;0.40;;
9643;SDS011;4860;50.900;4.720;2024-03-02T05:51:13;0.30;;;0.30;;
9643;SDS011;4860;50.900;4.720;2024-03-02T05:53:40;0.40;;;0.40;;
9643;SDS011;4860;50.900;4.720;2024-03-02T05:56:07;0.40;;;0.40;;
9643;SDS011;4860;50.900;4.720;2024-03-02T05:58:33;0.40;;;0.40;;
9643;SDS011;4860;50.900;4.720;2024-03-02T06:01:19;0.30;;;0.30;;
9643;SDS011;4860;50.900;4.720;2024-03-02T06:03:45;0.40;;;0.40;;
9643;SDS011;4860;50.900;4.720;2024-03-02T06:06:12;0.30;;;0.30;;
9643;SDS011;4860;50.900;4.720;2024-03-02T06:08:41;0.33;;;0.33;;
9643;SDS011;4860;50.900;4.720;2024-03-02T06:11:09;0.30;;;0.30;;
9643;SDS011;4860;50.900;4.720;2024-03-02T06:13:35;0.40;;;0.40;;
9643;SDS011;4860;50.900;4.720;2024-03-02T06:16:02;0.30;;;0.30;;
9643;SDS011;4860;50.900;4.720;2024-03-02T06:18:28;0.40;;;0.40;;
9643;SDS011;4860;50.900;4.720;2024-03-02T06:20:55;0.40;;;0.40;;
9643;SDS011;4860;50.900;4.720;2024-03-02T06:23:21;0.40;;;0.40;;
9643;SDS011;4860;50.900;4.720;2024-03-02T06:25:47;0.30;;;0.30;;
9643;SDS011;4860;50.900;4.720;2024-03-02T06:28:13;0.40;;;0.40;;
9643;SDS011;4860;50.900;4.720;2024-03-02T06:30:41;0.33;;;0.33;;
9643;SDS011;4860;50.900;4.720;2024-03-02T06:33:08;0.33;;;0.33;;
9643;SDS011;4860;50.900;4.720;2024-03-02T06:35:34;0.30;;;0.30;;
9643;SDS011;4860;50.900;4.720;2024-03-02T06:38:01;0.40;;;0.40;;
9643;SDS011;4860;50.900;4.720;2024-03-02T06:40:27;0.40;;;0.40;;
9643;SDS011;4860;50.900;4.720;2024-03-02T06:42:53;0.40;;;0.40;;
9643;SDS011;4860;50.900;4.720;2024-03-02T06:45:19;0.40;;;0.40;;
9643;SDS011;4860;50.900;4.720;2024-03-02T06:47:46;0.40;;;0.40;;
9643;SDS011;4860;50.900;4.720;2024-03-02T06:50:12;0.37;;;0.37;;
9643;SDS011;4860;50.900;4.720;2024-03-02T06:52:38;0.30;;;0.30;;
9643;SDS011;4860;50.900;4.720;2024-03-02T06:55:05;0.40;;;0.40;;
9643;SDS011;4860;50.900;4.720;2024-03-02T06:57:32;0.33;;;0.33;;
9643;SDS011;4860;50.900;4.720;2024-03-02T06:59:58;0.30;;;0.30;;
9643;SDS011;4860;50.900;4.720;2024-03-02T07:02:25;0.30;;;0.30;;
9643;SDS011;4860;50.900;4.720;2024-03-02T07:04:52;0.40;;;0.40;;
9643;SDS011;4860;50.900;4.720;2024-03-02T07:07:19;0.30;;;0.30;;
9643;SDS011;4860;50.900;4.720;2024-03-02T07:09:46;0.40;;;0.40;;
9643;SDS011;4860;50.900;4.720;2024-03-02T07:12:13;0.30;;;0.30;;
9643;SDS011;4860;50.900;4.720;2024-03-02T07:14:40;0.30;;;0.30;;
9643;SDS011;4860;50.900;4.720;2024-03-02T07:17:25;0.40;;;0.40;;
9643;SDS011;4860;50.900;4.720;2024-03-02T07:19:51;0.40;;;0.40;;
9643;SDS011;4860;50.900;4.720;2024-03-02T07:22:17;0.30;;;0.30;;
9643;SDS011;4860;50.900;4.720;2024-03-02T07:24:43;0.30;;;0.30;;
9643;SDS011;4860;50.900;4.720;2024-03-02T07:27:11;0.30;;;0.30;;
9643;SDS011;4860;50.900;4.720;2024-03-02T07:29:37;0.40;;;0.40;;
9643;SDS011;4860;50.900;4.720;2024-03-02T07:32:04;0.30;;;0.30;;
9643;SDS011;4860;50.900;4.720;2024-03-02T07:34:30;0.40;;;0.40;;
9643;SDS011;4860;50.900;4.720;2024-03-02T07:36:57;0.30;;;0.30;;
9643;SDS011;4860;50.900;4.720;2024-03-02T07:39:23;0.40;;;0.40;;
9643;SDS011;4860;50.900;4.720;2024-03-02T07:41:49;0.30;;;0.30;;
9643;SDS011;4860;50.900;4.720;2024-03-02T07:44:16;0.40;;;0.40;;
9643;SDS011;4860;50.900;4.720;2024-03-02T07:46:47;0.30;;;0.30;;
9643;SDS011;4860;50.900;4.720;2024-03-02T07:49:17;0.40;;;0.40;;
9643;SDS011;4860;50.900;4.720;2024-03-02T07:51:44;0.40;;;0.40;;
9643;SDS011;4860;50.900;4.720;2024-03-02T07:54:16;0.30;;;0.30;;
9643;SDS011;4860;50.900;4.720;2024-03-02T07:56:42;0.30;;;0.30;;
9643;SDS011;4860;50.900;4.720;2024-03-02T07:59:09;0.40;;;0.40;;
9643;SDS011;4860;50.900;4.720;2024-03-02T08:01:35;0.40;;;0.40;;
9643;SDS011;4860;50.900;4.720;2024-03-02T08:04:02;0.40;;;0.40;;
9643;SDS011;4860;50.900;4.720;2024-03-02T08:06:29;0.30;;;0.30;;
9643;SDS011;4860;50.900;4.720;2024-03-02T08:08:56;0.30;;;0.30;;
9643;SDS011;4860;50.900;4.720;2024-03-02T08:11:22;0.30;;;0.30;;
9643;SDS011;4860;50.900;4.720;2024-03-02T08:13:49;0.30;;;0.30;;
9643;SDS011;4860;50.900;4.720;2024-03-02T08:16:18;0.28;;;0.28;;
9643;SDS011;4860;50.900;4.720;2024-03-02T08:18:47;0.30;;;0.30;;
9643;SDS011;4860;50.900;4.720;2024-03-02T08:21:14;0.30;;;0.30;;
9643;SDS011;4860;50.900;4.720;2024-03-02T08:23:40;0.30;;;0.30;;
9643;SDS011;4860;50.900;4.720;2024-03-02T08:26:08;0.30;;;0.30;;
9643;SDS011;4860;50.900;4.720;2024-03-02T08:28:34;0.30;;;0.30;;
9643;SDS011;4860;50.900;4.720;2024-03-02T08:31:06;0.25;;;0.25;;
9643;SDS011;4860;50.900;4.720;2024-03-02T08:33:32;0.30;;;0.30;;
9643;SDS011;4860;50.900;4.720;2024-03-02T08:35:59;0.30;;;0.30;;
9643;SDS011;4860;50.900;4.720;2024-03-02T08:38:26;0.30;;;0.30;;
9643;SDS011;4860;50.900;4.720;2024-03-02T08:40:52;0.28;;;0.28;;
9643;SDS011;4860;50.900;4.720;2024-03-02T08:43:19;0.30;;;0.30;;
9643;SDS011;4860;50.900;4.720;2024-03-02T08:45:45;0.30;;;0.30;;
9643;SDS011;4860;50.900;4.720;2024-03-02T08:48:13;0.20;;;0.20;;
9643;SDS011;4860;50.900;4.720;2024-03-02T08:50:40;0.30;;;0.30;;
9643;SDS011;4860;50.900;4.720;2024-03-02T08:53:07;0.30;;;0.30;;
9643;SDS011;4860;50.900;4.720;2024-03-02T08:55:33;0.30;;;0.30;;
9643;SDS011;4860;50.900;4.720;2024-03-02T08:57:59;0.30;;;0.30;;
9643;SDS011;4860;50.900;4.720;2024-03-02T09:00:26;0.30;;;0.30;;
9643;SDS011;4860;50.900;4.720;2024-03-02T09:02:52;0.30;;;0.30;;
9643;SDS011;4860;50.900;4.720;2024-03-02T09:05:19;0.30;;;0.30;;
9643;SDS011;4860;50.900;4.720;2024-03-02T09:07:45;0.20;;;0.20;;
9643;SDS011;4860;50.900;4.720;2024-03-02T09:10:11;0.30;;;0.30;;
9643;SDS011;4860;50.900;4.720;2024-03-02T09:12:37;0.22;;;0.22;;
9643;SDS011;4860;50.900;4.720;2024-03-02T09:15:05;0.20;;;0.20;;
9643;SDS011;4860;50.900;4.720;2024-03-02T09:17:31;0.20;;;0.20;;
9643;SDS011;4860;50.900;4.720;2024-03-02T09:19:58;0.20;;;0.20;;
9643;SDS011;4860;50.900;4.720;2024-03-02T09:22:24;0.20;;;0.20;;
9643;SDS011;4860;50.900;4.720;2024-03-02T09:24:50;0.30;;;0.30;;
9643;SDS011;4860;50.900;4.720;2024-03-02T09:27:16;0.30;;;0.30;;
9643;SDS011;4860;50.900;4.720;2024-03-02T09:29:43;0.20;;;0.20;;
9643;SDS011;4860;50.900;4.720;2024-03-02T09:32:11;0.20;;;0.20;;
9643;SDS011;4860;50.900;4.720;2024-03-02T09:34:38;0.20;;;0.20;;
9643;SDS011;4860;50.900;4.720;2024-03-02T09:37:06;0.20;;;0.20;;
9643;SDS011;4860;50.900;4.720;2024-03-02T09:39:32;0.20;;;0.20;;
9643;SDS011;4860;50.900;4.720;2024-03-02T09:41:58;0.20;;;0.20;;
9643;SDS011;4860;50.900;4.720;2024-03-02T09:44:29;0.20;;;0.20;;
9643;SDS011;4860;50.900;4.720;2024-03-02T09:46:55;0.20;;;0.20;;
9643;SDS011;4860;50.900;4.720;2024-03-02T09:49:22;0.20;;;0.20;;
9643;SDS011;4860;50.900;4.720;2024-03-02T09:51:49;0.25;;;0.25;;
9643;SDS011;4860;50.900;4.720;2024-03-02T09:54:16;0.20;;;0.20;;
9643;SDS011;4860;50.900;4.720;2024-03-02T09:56:43;0.20;;;0.20;;
9643;SDS011;4860;50.900;4.720;2024-03-02T09:59:10;0.20;;;0.20;;
9643;SDS011;4860;50.900;4.720;2024-03-02T10:01:37;0.10;;;0.10;;
9643;SDS011;4860;50.900;4.720;2024-03-02T10:04:03;0.20;;;0.20;;
9643;SDS011;4860;50.900;4.720;2024-03-02T10:06:33;0.20;;;0.20;;
9643;SDS011;4860;50.900;4.720;2024-03-02T10:09:02;0.25;;;0.25;;
9643;SDS011;4860;50.900;4.720;2024-03-02T10:11:33;0.20;;;0.20;;
9643;SDS011;4860;50.900;4.720;2024-03-02T10:14:08;0.20;;;0.20;;
9643;SDS011;4860;50.900;4.720;2024-03-02T10:16:39;0.20;;;0.20;;
9643;SDS011;4860;50.900;4.720;2024-03-02T10:19:15;0.20;;;0.20;;
9643;SDS011;4860;50.900;4.720;2024-03-02T10:21:43;0.20;;;0.20;;
9643;SDS011;4860;50.900;4.720;2024-03-02T10:24:09;0.20;;;0.20;;
9643;SDS011;4860;50.900;4.720;2024-03-02T10:26:36;0.20;;;0.20;;
9643;SDS011;4860;50.900;4.720;2024-03-02T10:29:02;0.20;;;0.20;;
9643;SDS011;4860;50.900;4.720;2024-03-02T10:31:29;0.20;;;0.20;;
9643;SDS011;4860;50.900;4.720;2024-03-02T10:33:55;0.20;;;0.20;;
9643;SDS011;4860;50.900;4.720;2024-03-02T10:36:22;0.20;;;0.20;;
9643;SDS011;4860;50.900;4.720;2024-03-02T10:38:49;0.20;;;0.20;;
9643;SDS011;4860;50.900;4.720;2024-03-02T10:41:18;0.20;;;0.20;;
9643;SDS011;4860;50.900;4.720;2024-03-02T10:43:45;0.20;;;0.20;;
9643;SDS011;4860;50.900;4.720;2024-03-02T10:46:12;0.20;;;0.20;;
9643;SDS011;4860;50.900;4.720;2024-03-02T10:48:39;0.28;;;0.28;;
9643;SDS011;4860;50.900;4.720;2024-03-02T10:51:08;0.20;;;0.20;;
9643;SDS011;4860;50.900;4.720;2024-03-02T10:53:35;0.20;;;0.20;;
9643;SDS011;4860;50.900;4.720;2024-03-02T10:56:01;0.20;;;0.20;;
9643;SDS011;4860;50.900;4.720;2024-03-02T10:58:31;0.20;;;0.20;;
9643;SDS011;4860;50.900;4.720;2024-03-02T11:01:02;0.20;;;0.20;;
9643;SDS011;4860;50.900;4.720;2024-03-02T11:03:29;0.20;;;0.20;;
9643;SDS011;4860;50.900;4.720;2024-03-02T11:05:58;0.10;;;0.10;;
9643;SDS011;4860;50.900;4.720;2024-03-02T11:08:25;0.10;;;0.10;;
9643;SDS011;4860;50.900;4.720;2024-03-02T11:11:07;0.20;;;0.20;;
9643;SDS011;4860;50.900;4.720;2024-03-02T11:13:36;0.10;;;0.10;;
9643;SDS011;4860;50.900;4.720;2024-03-02T11:16:09;0.20;;;0.20;;
9643;SDS011;4860;50.900;4.720;2024-03-02T11:18:38;0.20;;;0.20;;
9643;SDS011;4860;50.900;4.720;2024-03-02T11:21:05;0.17;;;0.17;;
9643;SDS011;4860;50.900;4.720;2024-03-02T11:23:34;0.10;;;0.10;;
9643;SDS011;4860;50.900;4.720;2024-03-02T11:26:16;0.10;;;0.10;;
9643;SDS011;4860;50.900;4.720;2024-03-02T11:28:43;0.10;;;0.10;;
9643;SDS011;4860;50.900;4.720;2024-03-02T11:31:10;0.15;;;0.15;;
9643;SDS011;4860;50.900;4.720;2024-03-02T11:33:37;0.20;;;0.20;;
9643;SDS011;4860;50.900;4.720;2024-03-02T11:36:03;0.10;;;0.10;;
9643;SDS011;4860;50.900;4.720;2024-03-02T11:38:32;0.10;;;0.10;;
9643;SDS011;4860;50.900;4.720;2024-03-02T11:41:02;0.20;;;0.20;;
9643;SDS011;4860;50.900;4.720;2024-03-02T11:43:29;0.28;;;0.28;;
9643;SDS011;4860;50.900;4.720;2024-03-02T11:45:57;0.10;;;0.10;;
9643;SDS011;4860;50.900;4.720;2024-03-02T11:48:24;0.10;;;0.10;;
9643;SDS011;4860;50.900;4.720;2024-03-02T11:50:51;0.10;;;0.10;;
9643;SDS011;4860;50.900;4.720;2024-03-02T11:53:19;0.20;;;0.20;;
9643;SDS011;4860;50.900;4.720;2024-03-02T11:55:45;0.10;;;0.10;;
9643;SDS011;4860;50.900;4.720;2024-03-02T11:58:12;0.10;;;0.10;;
9643;SDS011;4860;50.900;4.720;2024-03-02T12:00:38;0.10;;;0.10;;
9643;SDS011;4860;50.900;4.720;2024-03-02T12:03:05;0.20;;;0.20;;
9643;SDS011;4860;50.900;4.720;2024-03-02T12:05:32;0.10;;;0.10;;
9643;SDS011;4860;50.900;4.720;2024-03-02T12:07:59;0.10;;;0.10;;
9643;SDS011;4860;50.900;4.720;2024-03-02T12:10:26;0.10;;;0.10;;
9643;SDS011;4860;50.900;4.720;2024-03-02T12:12:56;0.10;;;0.10;;
9643;SDS011;4860;50.900;4.720;2024-03-02T12:15:26;0.10;;;0.10;;
9643;SDS011;4860;50.900;4.720;2024-03-02T12:17:53;0.10;;;0.10;;
9643;SDS011;4860;50.900;4.720;2024-03-02T12:20:20;0.10;;;0.10;;
9643;SDS011;4860;50.900;4.720;2024-03-02T12:22:46;0.13;;;0.13;;
9643;SDS011;4860;50.900;4.720;2024-03-02T12:25:12;0.08;;;0.08;;
9643;SDS011;4860;50.900;4.720;2024-03-02T12:27:39;0.10;;;0.10;;
9643;SDS011;4860;50.900;4.720;2024-03-02T12:30:06;0.08;;;0.08;;
9643;SDS011;4860;50.900;4.720;2024-03-02T12:32:37;0.15;;;0.15;;
9643;SDS011;4860;50.900;4.720;2024-03-02T12:35:04;0.10;;;0.10;;
9643;SDS011;4860;50.900;4.720;2024-03-02T12:37:31;0.10;;;0.10;;
9643;SDS011;4860;50.900;4.720;2024-03-02T12:39:57;0.10;;;0.10;;
9643;SDS011;4860;50.900;4.720;2024-03-02T12:42:24;0.10;;;0.10;;
9643;SDS011;4860;50.900;4.720;2024-03-02T12:44:54;0.10;;;0.10;;
9643;SDS011;4860;50.900;4.720;2024-03-02T12:47:20;0.10;;;0.10;;
9643;SDS011;4860;50.900;4.720;2024-03-02T12:49:47;0.20;;;0.20;;
9643;SDS011;4860;50.900;4.720;2024-03-02T12:52:13;0.10;;;0.10;;
9643;SDS011;4860;50.900;4.720;2024-03-02T12:54:39;0.20;;;0.20;;
9643;SDS011;4860;50.900;4.720;2024-03-02T12:57:06;0.10;;;0.10;;
9643;SDS011;4860;50.900;4.720;2024-03-02T12:59:32;0.10;;;0.10;;
9643;SDS011;4860;50.900;4.720;2024-03-02T13:01:58;0.10;;;0.10;;
9643;SDS011;4860;50.900;4.720;2024-03-02T13:04:27;0.20;;;0.20;;
9643;SDS011;4860;50.900;4.720;2024-03-02T13:06:56;0.10;;;0.10;;
9643;SDS011;4860;50.900;4.720;2024-03-02T13:09:23;0.10;;;0.10;;
9643;SDS011;4860;50.900;4.720;2024-03-02T13:11:49;0.10;;;0.10;;
9643;SDS011;4860;50.900;4.720;2024-03-02T13:14:16;0.10;;;0.10;;
9643;SDS011;4860;50.900;4.720;2024-03-02T13:16:42;0.10;;;0.10;;
9643;SDS011;4860;50.900;4.720;2024-03-02T13:19:09;0.10;;;0.10;;
9643;SDS011;4860;50.900;4.720;2024-03-02T13:21:35;0.10;;;0.10;;
9643;SDS011;4860;50.900;4.720;2024-03-02T13:24:02;0.10;;;0.10;;
9643;SDS011;4860;50.900;4.720;2024-03-02T13:26:28;0.10;;;0.10;;
9643;SDS011;4860;50.900;4.720;2024-03-02T13:28:55;0.10;;;0.10;;
9643;SDS011;4860;50.900;4.720;2024-03-02T13:31:21;0.10;;;0.10;;
9643;SDS011;4860;50.900;4.720;2024-03-02T13:33:47;0.10;;;0.10;;
9643;SDS011;4860;50.900;4.720;2024-03-02T13:36:15;0.10;;;0.10;;
9643;SDS011;4860;50.900;4.720;2024-03-02T13:38:43;0.10;;;0.10;;
9643;SDS011;4860;50.900;4.720;2024-03-02T13:41:09;0.10;;;0.10;;
9643;SDS011;4860;50.900;4.720;2024-03-02T13:43:36;0.20;;;0.20;;
9643;SDS011;4860;50.900;4.720;2024-03-02T13:46:04;0.10;;;0.10;;
9643;SDS011;4860;50.900;4.720;2024-03-02T13:48:31;0.10;;;0.10;;
9643;SDS011;4860;50.900;4.720;2024-03-02T13:50:57;0.10;;;0.10;;
9643;SDS011;4860;50.900;4.720;2024-03-02T13:53:24;0.10;;;0.10;;
9643;SDS011;4860;50.900;4.720;2024-03-02T13:55:51;0.17;;;0.17;;
9643;SDS011;4860;50.900;4.720;2024-03-02T13:58:17;0.10;;;0.10;;
9643;SDS011;4860;50.900;4.720;2024-03-02T14:00:45;0.10;;;0.10;;
9643;SDS011;4860;50.900;4.720;2024-03-02T14:03:12;0.10;;;0.10;;
9643;SDS011;4860;50.900;4.720;2024-03-02T14:05:38;0.10;;;0.10;;
9643;SDS011;4860;50.900;4.720;2024-03-02T14:08:05;0.10;;;0.10;;
9643;SDS011;4860;50.900;4.720;2024-03-02T14:10:31;0.10;;;0.10;;
9643;SDS011;4860;50.900;4.720;2024-03-02T14:12:57;0.10;;;0.10;;
9643;SDS011;4860;50.900;4.720;2024-03-02T14:15:24;0.10;;;0.10;;
9643;SDS011;4860;50.900;4.720;2024-03-02T14:17:50;0.10;;;0.10;;
9643;SDS011;4860;50.900;4.720;2024-03-02T14:20:17;0.15;;;0.15;;
9643;SDS011;4860;50.900;4.720;2024-03-02T14:22:47;0.20;;;0.20;;
9643;SDS011;4860;50.900;4.720;2024-03-02T14:25:13;0.10;;;0.10;;
9643;SDS011;4860;50.900;4.720;2024-03-02T14:27:40;0.10;;;0.10;;
9643;SDS011;4860;50.900;4.720;2024-03-02T14:30:07;0.10;;;0.10;;
9643;SDS011;4860;50.900;4.720;2024-03-02T14:32:33;0.10;;;0.10;;
9643;SDS011;4860;50.900;4.720;2024-03-02T14:35:00;0.13;;;0.13;;
9643;SDS011;4860;50.900;4.720;2024-03-02T14:37:27;0.10;;;0.10;;
9643;SDS011;4860;50.900;4.720;2024-03-02T14:39:54;0.10;;;0.10;;
9643;SDS011;4860;50.900;4.720;2024-03-02T14:42:20;0.10;;;0.10;;
9643;SDS011;4860;50.900;4.720;2024-03-02T14:44:47;0.10;;;0.10;;
9643;SDS011;4860;50.900;4.720;2024-03-02T14:47:13;0.10;;;0.10;;
9643;SDS011;4860;50.900;4.720;2024-03-02T14:49:39;0.10;;;0.10;;
9643;SDS011;4860;50.900;4.720;2024-03-02T14:52:06;0.10;;;0.10;;
9643;SDS011;4860;50.900;4.720;2024-03-02T14:54:34;0.10;;;0.10;;
9643;SDS011;4860;50.900;4.720;2024-03-02T14:57:03;0.10;;;0.10;;
9643;SDS011;4860;50.900;4.720;2024-03-02T14:59:29;0.10;;;0.10;;
9643;SDS011;4860;50.900;4.720;2024-03-02T15:01:56;0.10;;;0.10;;
9643;SDS011;4860;50.900;4.720;2024-03-02T15:04:22;0.10;;;0.10;;
9643;SDS011;4860;50.900;4.720;2024-03-02T15:06:49;0.00;;;0.00;;
9643;SDS011;4860;50.900;4.720;2024-03-02T15:09:15;0.10;;;0.10;;
9643;SDS011;4860;50.900;4.720;2024-03-02T15:11:45;0.15;;;0.15;;
9643;SDS011;4860;50.900;4.720;2024-03-02T15:14:11;0.10;;;0.10;;
9643;SDS011;4860;50.900;4.720;2024-03-02T15:16:37;0.10;;;0.10;;
9643;SDS011;4860;50.900;4.720;2024-03-02T15:19:04;0.10;;;0.10;;